Time;durP1;ratioP1;P1;durP2;ratioP2;P2;SDS_P1;SDS_P2;PMS_P1;PMS_P2;Temp;Humidity;BMP_temperature;BMP_pressure;BME280_temperature;BME280_humidity;BME280_pressure;Samples;Min_cycle;Max_cycle;Signal;HPM_P1;HPM_P2
2024/03/20 00:02:16;;;;;;;9.98;8.98;;;;;;;12.44;67.50;100459.69;10392548;28;20040;-61
2024/03/20 00:07:17;;;;;;;12.55;9.30;;;;;;;12.38;67.85;100461.06;10427824;28;20048;-60
2024/03/20 00:12:19;;;;;;;10.68;9.68;;;;;;;12.38;68.72;100466.41;10425391;28;20157;-61
2024/03/20 00:17:20;;;;;;;11.00;9.40;;;;;;;12.35;68.39;100458.63;10412854;28;20675;-60
2024/03/20 00:22:21;;;;;;;11.60;9.48;;;;;;;12.30;68.81;100452.84;10399847;28;20044;-61
2024/03/20 00:27:21;;;;;;;10.88;9.18;;;;;;;12.25;68.58;100460.41;10429666;28;20665;-61
2024/03/20 00:32:22;;;;;;;9.45;8.55;;;;;;;12.26;68.98;100456.75;10433324;28;22571;-63
2024/03/20 00:37:22;;;;;;;10.57;7.65;;;;;;;12.06;68.92;100429.09;10405380;28;20052;-61
2024/03/20 00:42:25;;;;;;;11.25;8.85;;;;;;;12.03;68.61;100419.50;10411745;28;20083;-60
2024/03/20 00:47:26;;;;;;;9.57;8.48;;;;;;;12.19;68.99;100460.94;10434750;28;20495;-60
2024/03/20 00:52:27;;;;;;;10.70;8.52;;;;;;;12.15;68.93;100454.16;10413517;28;20549;-59
2024/03/20 00:57:27;;;;;;;12.75;9.30;;;;;;;12.12;69.66;100459.75;10424874;28;22518;-61
2024/03/20 01:02:28;;;;;;;9.80;8.13;;;;;;;12.07;69.46;100445.94;10435029;28;20053;-60
2024/03/20 01:07:28;;;;;;;9.68;8.77;;;;;;;12.05;69.81;100447.91;10434140;28;20045;-61
2024/03/20 01:12:30;;;;;;;10.48;8.93;;;;;;;11.96;69.78;100455.69;10436705;28;20053;-61
2024/03/20 01:17:33;;;;;;;10.57;8.38;;;;;;;11.97;70.37;100452.03;10432100;28;20159;-62
2024/03/20 01:22:35;;;;;;;11.50;10.27;;;;;;;11.96;70.60;100455.69;10419187;28;20146;-61
2024/03/20 01:27:36;;;;;;;15.75;9.10;;;;;;;11.71;70.33;100410.66;10423312;28;20351;-60
2024/03/20 01:32:36;;;;;;;9.15;8.25;;;;;;;11.86;70.48;100444.06;10412504;28;20106;-60
2024/03/20 01:37:37;;;;;;;12.25;9.77;;;;;;;11.84;70.85;100446.88;10420705;28;20049;-60
2024/03/20 01:42:37;;;;;;;11.02;8.70;;;;;;;11.79;70.64;100440.22;10432357;28;20048;-60
2024/03/20 01:47:40;;;;;;;10.13;7.65;;;;;;;11.79;71.09;100433.03;10435755;28;20106;-61
2024/03/20 01:52:55;;;;;;;12.18;9.15;;;;;;;11.75;70.91;100431.59;10417315;28;20128;-61
2024/03/20 01:57:55;;;;;;;10.77;9.30;;;;;;;11.79;71.53;100435.72;10404730;28;20790;-61
2024/03/20 02:02:59;;;;;;;12.52;10.52;;;;;;;11.60;72.43;100404.38;10427924;28;20047;-60
2024/03/20 02:08:04;;;;;;;11.63;10.13;;;;;;;11.80;72.45;100439.22;10406730;28;20165;-60
2024/03/20 02:13:05;;;;;;;12.00;10.65;;;;;;;11.64;72.51;100413.81;10425173;28;20295;-62
2024/03/20 02:18:07;;;;;;;15.57;12.00;;;;;;;11.78;72.46;100436.69;10432190;28;20660;-63
2024/03/20 02:23:08;;;;;;;14.10;11.00;;;;;;;11.72;72.69;100423.84;10411282;28;20131;-62
2024/03/20 02:28:08;;;;;;;14.80;12.20;;;;;;;11.66;72.15;100417.22;10430281;28;20075;-61
2024/03/20 02:33:09;;;;;;;14.20;12.02;;;;;;;11.68;72.27;100420.59;10412363;28;20132;-61
2024/03/20 02:38:10;;;;;;;12.07;9.95;;;;;;;11.71;72.32;100424.84;10424666;28;20115;-62
2024/03/20 02:43:11;;;;;;;14.77;11.70;;;;;;;11.63;72.25;100424.63;10428283;28;20059;-61
2024/03/20 02:48:13;;;;;;;12.73;10.85;;;;;;;11.55;72.33;100424.41;10409559;28;20737;-60
2024/03/20 02:53:14;;;;;;;15.57;12.07;;;;;;;11.51;72.87;100429.13;10366920;28;20096;-61
2024/03/20 02:58:14;;;;;;;12.15;10.80;;;;;;;11.51;72.87;100431.81;10410284;28;20139;-61
2024/03/20 03:03:15;;;;;;;13.50;10.95;;;;;;;11.49;72.93;100431.09;10387231;28;20060;-62
2024/03/20 03:08:15;;;;;;;12.77;11.13;;;;;;;11.39;73.26;100430.13;10415075;28;20044;-61
2024/03/20 03:13:16;;;;;;;14.77;11.32;;;;;;;11.41;73.41;100438.84;10390268;28;20102;-61
2024/03/20 03:18:16;;;;;;;13.65;11.63;;;;;;;11.38;73.44;100426.63;10407459;28;20652;-61
2024/03/20 03:23:16;;;;;;;14.77;12.57;;;;;;;11.32;73.16;100438.63;10405047;28;20060;-62
2024/03/20 03:28:17;;;;;;;14.55;11.90;;;;;;;11.25;73.17;100440.09;10403280;28;20290;-62
2024/03/20 03:33:17;;;;;;;13.23;11.77;;;;;;;11.20;73.13;100431.63;10420042;28;20044;-61
2024/03/20 03:38:18;;;;;;;12.63;11.00;;;;;;;11.21;73.74;100441.31;10419737;28;20718;-61
2024/03/20 03:43:18;;;;;;;15.35;12.00;;;;;;;11.22;73.91;100444.84;10421227;28;20043;-61
2024/03/20 03:48:19;;;;;;;12.80;11.23;;;;;;;11.24;73.73;100442.88;10397035;28;20077;-62
2024/03/20 03:53:19;;;;;;;13.20;11.20;;;;;;;11.23;74.35;100442.03;10407657;28;20621;-61
2024/03/20 03:58:20;;;;;;;14.38;11.73;;;;;;;11.27;73.99;100445.31;10408078;28;20591;-60
2024/03/20 04:03:27;;;;;;;13.27;11.40;;;;;;;11.18;73.65;100444.22;10415562;28;20065;-61
2024/03/20 04:08:27;;;;;;;14.40;12.18;;;;;;;11.10;74.04;100444.84;10420373;28;21058;-62
2024/03/20 04:13:28;;;;;;;14.13;12.60;;;;;;;11.13;74.35;100444.59;10418387;28;20457;-62
2024/03/20 04:18:28;;;;;;;12.82;11.25;;;;;;;11.14;74.64;100448.13;10376931;28;20155;-61
2024/03/20 04:23:29;;;;;;;13.25;11.38;;;;;;;11.05;74.15;100441.69;10420775;28;20055;-61
2024/03/20 04:28:29;;;;;;;15.88;12.02;;;;;;;11.08;74.57;100448.56;10403440;28;20146;-60
2024/03/20 04:33:30;;;;;;;13.63;11.75;;;;;;;11.07;74.64;100446.91;10396648;28;20048;-60
2024/03/20 04:38:32;;;;;;;13.25;10.88;;;;;;;11.05;74.70;100447.03;10402017;28;20107;-62
2024/03/20 04:43:34;;;;;;;12.85;11.40;;;;;;;11.00;74.36;100443.88;10419834;28;20132;-61
2024/03/20 04:48:35;;;;;;;16.95;12.77;;;;;;;10.98;74.34;100445.81;10419338;28;20132;-62
2024/03/20 04:53:35;;;;;;;12.80;11.40;;;;;;;10.92;74.42;100457.78;10422358;28;20523;-62
2024/03/20 04:58:36;;;;;;;12.57;11.25;;;;;;;10.94;74.67;100463.88;10418480;28;20052;-62
2024/03/20 05:03:36;;;;;;;14.10;11.15;;;;;;;10.84;74.76;100454.03;10386489;28;20139;-61
2024/03/20 05:08:37;;;;;;;13.70;11.43;;;;;;;10.83;74.57;100455.84;10427441;28;20057;-62
2024/03/20 05:13:37;;;;;;;13.63;10.13;;;;;;;10.86;74.64;100466.28;10413085;28;20159;-61
2024/03/20 05:18:39;;;;;;;12.15;10.85;;;;;;;10.85;74.62;100464.56;10415477;28;20052;-62
2024/03/20 05:23:39;;;;;;;11.23;9.88;;;;;;;10.85;74.72;100464.56;10407451;28;20726;-62
2024/03/20 05:28:40;;;;;;;12.25;10.02;;;;;;;10.83;74.82;100465.66;10408422;28;20055;-61
2024/03/20 05:33:40;;;;;;;13.82;10.68;;;;;;;10.74;74.81;100446.75;10424175;28;20068;-62
2024/03/20 05:38:41;;;;;;;13.15;10.82;;;;;;;10.75;74.93;100458.28;10377647;28;20167;-60
2024/03/20 05:43:41;;;;;;;15.18;10.80;;;;;;;10.85;75.01;100474.38;10404232;28;20131;-61
2024/03/20 05:48:42;;;;;;;15.07;11.38;;;;;;;10.89;74.93;100482.00;10398176;28;20592;-62
2024/03/20 05:53:43;;;;;;;12.15;10.85;;;;;;;10.87;75.12;100477.75;10410857;28;20208;-62
2024/03/20 05:58:43;;;;;;;13.57;10.80;;;;;;;10.80;75.10;100466.75;10420832;28;20047;-62
2024/03/20 06:03:44;;;;;;;14.02;11.30;;;;;;;10.87;75.08;100475.97;10422357;28;20053;-62
2024/03/20 06:08:44;;;;;;;14.15;11.80;;;;;;;10.90;75.18;100483.72;10423459;28;20052;-61
2024/03/20 06:14:04;;;;;;;11.00;9.80;;;;;;;10.91;75.08;100482.75;10420237;28;20038;-61
2024/03/20 06:19:05;;;;;;;12.95;10.63;;;;;;;10.94;74.78;100479.84;10408015;28;20048;-63
2024/03/20 06:24:05;;;;;;;14.55;11.32;;;;;;;11.06;74.79;100485.16;10408469;28;20049;-61
2024/03/20 06:29:07;;;;;;;11.00;9.50;;;;;;;11.10;74.57;100483.97;10364829;28;20052;-63
2024/03/20 06:34:10;;;;;;;12.60;10.00;;;;;;;11.18;74.84;100486.84;10429016;28;20123;-61
2024/03/20 06:39:11;;;;;;;9.02;8.13;;;;;;;11.18;74.47;100492.19;10421790;28;20135;-61
2024/03/20 06:44:14;;;;;;;12.13;9.40;;;;;;;11.22;73.63;100498.97;10414635;28;20517;-61
2024/03/20 06:49:15;;;;;;;10.05;8.15;;;;;;;11.13;74.35;100491.69;10426019;28;20724;-61
2024/03/20 06:54:19;;;;;;;10.55;8.45;;;;;;;11.29;74.66;100502.00;10424708;28;20064;-60
2024/03/20 06:59:21;;;;;;;10.65;9.00;;;;;;;11.45;73.74;100497.16;10428328;28;20134;-62
2024/03/20 07:04:22;;;;;;;9.15;7.70;;;;;;;11.63;73.16;100512.59;10429647;28;20242;-62
2024/03/20 07:09:22;;;;;;;10.70;8.00;;;;;;;11.65;72.59;100516.84;10420077;28;20093;-61
2024/03/20 07:14:29;;;;;;;8.65;7.72;;;;;;;11.78;72.24;100515.84;10393177;28;20138;-61
2024/03/20 07:19:30;;;;;;;9.38;7.97;;;;;;;11.94;72.03;100516.31;10397030;28;20127;-61
2024/03/20 07:24:32;;;;;;;12.10;8.45;;;;;;;12.14;71.51;100521.84;10430869;28;20653;-62
2024/03/20 07:29:33;;;;;;;10.70;8.00;;;;;;;12.33;70.83;100518.50;10392343;28;20251;-62
2024/03/20 07:34:34;;;;;;;9.02;8.13;;;;;;;12.44;70.67;100514.91;10399757;28;20064;-62
2024/03/20 07:39:34;;;;;;;10.05;8.80;;;;;;;12.62;70.21;100521.34;10406232;28;20123;-61
2024/03/20 07:44:36;;;;;;;10.02;8.98;;;;;;;12.78;70.21;100522.75;10421469;28;20056;-59
2024/03/20 07:49:36;;;;;;;9.95;8.07;;;;;;;12.94;69.57;100516.91;10384218;28;20135;-62
2024/03/20 07:54:37;;;;;;;9.27;8.38;;;;;;;13.13;69.33;100518.84;10402236;28;20056;-61
2024/03/20 07:59:37;;;;;;;11.82;8.48;;;;;;;13.27;69.06;100537.22;10422169;28;20688;-63
2024/03/20 08:04:38;;;;;;;10.13;8.50;;;;;;;13.41;68.88;100538.69;10425426;28;21214;-61
2024/03/20 08:09:39;;;;;;;11.13;8.48;;;;;;;13.52;68.91;100541.25;10425856;28;20135;-61
2024/03/20 08:14:39;;;;;;;9.93;8.40;;;;;;;13.63;68.39;100552.84;10373535;28;20056;-62
2024/03/20 08:19:41;;;;;;;11.60;8.63;;;;;;;13.75;68.20;100547.25;10399666;28;20057;-61
2024/03/20 08:24:43;;;;;;;10.68;8.10;;;;;;;13.94;68.37;100534.88;10411969;28;20171;-62
2024/03/20 08:29:43;;;;;;;8.38;7.55;;;;;;;14.07;66.83;100535.47;10424804;28;20198;-61
2024/03/20 08:34:44;;;;;;;13.23;10.02;;;;;;;14.10;67.15;100540.53;10415845;28;20158;-61
2024/03/20 08:39:46;;;;;;;10.25;8.35;;;;;;;14.33;66.51;100545.63;10431980;28;20047;-60
2024/03/20 08:44:46;;;;;;;11.05;8.95;;;;;;;14.63;66.10;100541.13;10419383;28;20793;-60
2024/03/20 08:49:49;;;;;;;10.52;8.48;;;;;;;14.85;64.40;100538.13;10434062;28;20161;-60
2024/03/20 08:54:49;;;;;;;13.52;8.48;;;;;;;15.09;64.12;100534.13;10433878;28;20520;-62
2024/03/20 08:59:53;;;;;;;9.00;7.70;;;;;;;15.36;63.06;100529.78;10415843;28;20558;-62
2024/03/20 09:04:53;;;;;;;9.20;7.65;;;;;;;15.60;62.20;100523.03;10423358;28;20125;-64
2024/03/20 09:09:53;;;;;;;9.98;8.80;;;;;;;15.87;61.16;100530.25;10436073;28;20130;-60
2024/03/20 09:14:54;;;;;;;9.90;8.50;;;;;;;16.09;60.48;100523.59;10436205;28;20076;-61
2024/03/20 09:19:55;;;;;;;9.82;7.15;;;;;;;16.28;59.77;100514.53;10400058;28;20128;-62
2024/03/20 09:24:55;;;;;;;9.88;8.68;;;;;;;16.49;58.75;100524.97;10407483;28;20047;-62
2024/03/20 09:29:55;;;;;;;12.07;8.88;;;;;;;16.81;57.09;100506.53;10436776;28;20036;-63
2024/03/20 09:34:58;;;;;;;10.77;8.48;;;;;;;17.15;57.23;100520.06;10431861;28;20076;-63
2024/03/20 09:40:00;;;;;;;12.52;9.25;;;;;;;17.31;56.21;100511.25;10404281;28;20131;-62
2024/03/20 09:45:03;;;;;;;11.38;8.88;;;;;;;17.60;55.88;100510.84;10427669;28;20132;-61
2024/03/20 09:50:04;;;;;;;13.02;10.50;;;;;;;17.96;53.59;100507.94;10427818;28;20139;-61
2024/03/20 09:55:07;;;;;;;11.65;9.35;;;;;;;18.35;53.53;100517.25;10425531;28;20075;-59
2024/03/20 10:00:14;;;;;;;13.47;10.67;;;;;;;18.63;51.55;100509.66;10422530;28;20211;-61
2024/03/20 10:05:15;;;;;;;10.32;9.35;;;;;;;18.94;51.08;100503.56;10429859;28;20170;-63
2024/03/20 10:10:16;;;;;;;10.23;8.45;;;;;;;19.21;50.85;100507.69;10415850;28;20139;-62
2024/03/20 10:15:24;;;;;;;123.05;25.17;;;;;;;19.44;49.44;100485.31;10424456;28;20040;-63
2024/03/20 10:20:25;;;;;;;12.18;9.45;;;;;;;19.82;48.94;100481.97;10407257;28;20152;-63
2024/03/20 10:25:25;;;;;;;25.77;11.90;;;;;;;20.12;47.92;100483.78;10391029;28;20060;-63
2024/03/20 10:30:27;;;;;;;20.05;10.25;;;;;;;20.33;48.02;100484.97;10432416;28;20102;-62
2024/03/20 10:35:29;;;;;;;11.88;8.55;;;;;;;20.53;46.66;100485.28;10388279;28;20206;-62
2024/03/20 10:40:33;;;;;;;8.60;7.70;;;;;;;20.91;46.38;100473.63;10401755;28;21119;-63
2024/03/20 10:45:36;;;;;;;10.05;8.45;;;;;;;21.53;45.24;100485.94;10375998;28;20136;-61
2024/03/20 10:50:37;;;;;;;8.70;7.33;;;;;;;21.65;43.17;100470.88;10413931;28;20754;-62
2024/03/20 10:55:37;;;;;;;8.75;7.82;;;;;;;21.78;42.92;100472.88;10414679;28;20280;-60
2024/03/20 11:00:40;;;;;;;9.98;7.28;;;;;;;22.31;42.02;100479.84;10429766;28;20067;-62
2024/03/20 11:05:41;;;;;;;8.27;7.07;;;;;;;22.54;42.07;100471.53;10422247;28;20163;-61
2024/03/20 11:10:48;;;;;;;8.38;7.28;;;;;;;22.70;40.70;100473.09;10426339;28;20088;-60
2024/03/20 11:15:50;;;;;;;8.27;7.25;;;;;;;22.80;41.11;100470.84;10435669;28;20068;-61
2024/03/20 11:20:51;;;;;;;7.10;5.60;;;;;;;23.27;40.67;100463.84;10405382;28;20131;-60
2024/03/20 11:25:51;;;;;;;10.87;6.47;;;;;;;23.80;39.38;100465.06;10415368;28;20151;-61
2024/03/20 11:30:52;;;;;;;9.68;6.43;;;;;;;24.20;37.65;100458.88;10417709;28;20812;-62
2024/03/20 11:35:52;;;;;;;7.70;5.60;;;;;;;24.76;36.91;100447.59;10407171;28;20161;-62
2024/03/20 11:40:57;;;;;;;6.33;5.70;;;;;;;24.68;36.82;100445.06;10424552;28;20371;-61
2024/03/20 11:45:57;;;;;;;5.57;5.07;;;;;;;25.08;36.90;100449.59;10413409;28;20847;-62
2024/03/20 11:50:59;;;;;;;8.05;5.50;;;;;;;25.85;36.07;100441.47;10394422;28;20059;-62
2024/03/20 11:55:59;;;;;;;7.60;5.60;;;;;;;26.13;35.07;100434.81;10428867;28;20136;-60
2024/03/20 12:01:05;;;;;;;4.75;4.30;;;;;;;26.52;34.12;100439.09;10420597;28;20051;-61
2024/03/20 12:06:13;;;;;;;4.70;4.10;;;;;;;26.73;31.78;100440.59;10426099;28;20143;-62
2024/03/20 12:11:14;;;;;;;5.35;3.88;;;;;;;26.88;31.52;100431.22;10413267;28;20132;-61
2024/03/20 12:16:14;;;;;;;6.22;3.65;;;;;;;27.10;31.25;100429.69;10415126;28;20148;-61
2024/03/20 12:21:17;;;;;;;15.57;5.10;;;;;;;27.69;31.32;100415.47;10423637;28;20139;-60
2024/03/20 12:26:22;;;;;;;4.88;3.58;;;;;;;27.95;30.23;100410.66;10424115;28;20304;-62
2024/03/20 12:31:23;;;;;;;4.65;3.63;;;;;;;28.59;28.85;100408.09;10413735;28;20100;-63
2024/03/20 12:36:25;;;;;;;5.25;3.33;;;;;;;29.63;28.19;100400.94;10427665;28;20207;-60
2024/03/20 12:41:26;;;;;;;4.40;3.85;;;;;;;31.54;24.30;100399.00;10427759;28;20647;-61
2024/03/20 12:46:26;;;;;;;3.40;3.03;;;;;;;33.17;23.23;100394.13;10419877;28;20083;-62
2024/03/20 12:51:27;;;;;;;5.28;3.53;;;;;;;33.08;22.57;100386.34;10418644;28;20270;-62
2024/03/20 12:56:28;;;;;;;6.03;3.13;;;;;;;33.77;22.00;100389.88;10421818;28;20128;-61
2024/03/20 13:01:28;;;;;;;3.27;2.90;;;;;;;34.88;21.09;100391.91;10399145;28;20544;-63
2024/03/20 13:06:29;;;;;;;4.30;3.40;;;;;;;35.81;20.54;100396.94;10368134;28;20155;-64
2024/03/20 13:11:31;;;;;;;3.80;2.60;;;;;;;36.00;19.49;100383.22;10419139;28;20532;-65
2024/03/20 13:16:53;;;;;;;2.83;2.00;;;;;;;36.26;19.46;100372.72;10422740;28;20053;-61
2024/03/20 13:22:02;;;;;;;2.05;1.73;;;;;;;37.71;18.07;100381.97;10395593;28;20155;-65
2024/03/20 13:27:07;;;;;;;3.45;2.03;;;;;;;36.16;18.93;100375.56;10417197;28;20170;-63
2024/03/20 13:32:11;;;;;;;3.20;1.90;;;;;;;35.80;19.31;100355.72;10408869;28;20044;-61
2024/03/20 13:37:15;;;;;;;6.38;5.35;;;;;;;36.04;19.41;100366.84;10430947;28;20128;-62
2024/03/20 13:42:47;;;;;;;4.78;3.15;;;;;;;34.88;20.29;100355.97;10370784;28;21260;-62
2024/03/20 13:47:38;;;;;;;4.93;2.95;;;;;;;34.22;20.96;100358.91;10424173;28;20136;-61
2024/03/20 13:52:38;;;;;;;5.63;2.90;;;;;;;32.00;23.00;100355.44;10413839;28;20058;-62
2024/03/20 13:57:39;;;;;;;4.97;3.43;;;;;;;30.20;24.36;100350.59;10412647;28;20119;-60
2024/03/20 14:02:41;;;;;;;4.67;3.13;;;;;;;29.15;26.51;100348.19;10410515;28;20085;-61
2024/03/20 14:07:41;;;;;;;2.78;2.15;;;;;;;28.46;26.29;100337.19;10421892;28;20131;-63
2024/03/20 14:12:42;;;;;;;3.70;2.47;;;;;;;27.85;28.13;100338.22;10427873;28;20139;-63
2024/03/20 14:17:43;;;;;;;4.63;2.05;;;;;;;27.02;28.07;100328.91;10428885;28;20360;-62
2024/03/20 14:22:44;;;;;;;2.30;1.67;;;;;;;26.50;29.24;100328.47;10411587;28;20045;-62
2024/03/20 14:27:45;;;;;;;4.50;1.73;;;;;;;25.87;29.65;100327.59;10425325;28;20590;-62
2024/03/20 14:32:45;;;;;;;3.22;1.70;;;;;;;25.57;30.81;100323.63;10395349;28;20515;-62
2024/03/20 14:37:47;;;;;;;4.57;1.88;;;;;;;25.41;31.03;100319.53;10334610;28;20139;-62
2024/03/20 14:42:51;;;;;;;2.78;1.90;;;;;;;24.95;30.99;100317.06;10425288;28;20517;-65
2024/03/20 14:47:52;;;;;;;3.17;1.50;;;;;;;24.78;32.34;100314.81;10448312;28;20159;-62
2024/03/20 14:52:53;;;;;;;2.17;1.30;;;;;;;24.64;32.45;100302.34;10448133;28;20124;-62
2024/03/20 14:57:56;;;;;;;1.98;1.25;;;;;;;24.46;32.90;100297.56;10446690;28;20363;-61
2024/03/20 15:02:56;;;;;;;2.03;1.45;;;;;;;24.08;32.33;100296.38;10435675;28;20139;-61
2024/03/20 15:07:57;;;;;;;3.22;1.52;;;;;;;23.67;32.87;100296.56;10444107;28;20056;-63
2024/03/20 15:12:57;;;;;;;2.72;1.10;;;;;;;23.51;33.74;100293.22;10434845;28;20045;-61
2024/03/20 15:17:59;;;;;;;1.50;1.00;;;;;;;23.25;34.15;100283.97;10447482;28;20055;-63
2024/03/20 15:22:59;;;;;;;2.22;0.93;;;;;;;23.10;33.30;100264.34;10424373;28;20366;-62
2024/03/20 15:27:59;;;;;;;2.22;0.90;;;;;;;22.89;34.39;100274.25;10447930;28;20522;-64
2024/03/20 15:33:00;;;;;;;1.60;0.60;;;;;;;22.56;35.21;100275.00;10429004;28;20118;-64
2024/03/20 15:38:01;;;;;;;1.52;0.68;;;;;;;22.56;34.61;100274.13;10445537;28;20254;-65
2024/03/20 15:43:02;;;;;;;1.33;0.85;;;;;;;22.47;35.44;100280.78;10424515;28;20048;-64
2024/03/20 15:48:05;;;;;;;2.85;1.10;;;;;;;22.36;35.22;100271.34;10414326;28;20139;-64
2024/03/20 15:53:12;;;;;;;3.30;0.90;;;;;;;22.23;35.75;100272.06;10413198;28;20175;-65
2024/03/20 15:58:15;;;;;;;3.95;1.23;;;;;;;22.00;35.97;100275.88;10418945;28;20049;-64
2024/03/20 16:03:16;;;;;;;4.30;0.90;;;;;;;21.88;36.77;100277.47;10426591;28;20087;-62
2024/03/20 16:08:17;;;;;;;2.80;1.10;;;;;;;21.76;37.17;100274.47;10419181;28;20068;-62
2024/03/20 16:13:18;;;;;;;2.30;0.70;;;;;;;21.46;36.62;100271.88;10413485;28;20295;-61
2024/03/20 16:18:20;;;;;;;3.13;1.90;;;;;;;21.43;38.73;100291.22;10400452;28;20247;-61
2024/03/20 16:23:20;;;;;;;5.10;2.17;;;;;;;21.33;39.42;100286.16;10422480;28;20818;-60
2024/03/20 16:28:21;;;;;;;4.78;2.30;;;;;;;21.14;40.44;100282.22;10386324;28;20045;-62
2024/03/20 16:33:23;;;;;;;3.67;2.28;;;;;;;21.04;41.07;100287.09;10412039;28;20053;-62
2024/03/20 16:38:24;;;;;;;3.50;2.03;;;;;;;20.95;41.32;100282.81;10412177;28;20123;-61
2024/03/20 16:43:26;;;;;;;5.30;2.33;;;;;;;20.80;41.79;100291.81;10394876;28;20858;-62
2024/03/20 16:48:26;;;;;;;5.38;2.20;;;;;;;20.46;42.32;100266.19;10422991;28;20617;-62
2024/03/20 16:53:29;;;;;;;2.75;2.28;;;;;;;20.46;42.79;100284.25;10429515;28;20056;-59
2024/03/20 16:58:30;;;;;;;4.40;2.53;;;;;;;20.44;43.09;100294.44;10393569;28;20147;-63
2024/03/20 17:03:30;;;;;;;4.55;1.90;;;;;;;20.25;43.40;100293.13;10416724;28;20593;-62
2024/03/20 17:08:32;;;;;;;3.03;2.13;;;;;;;20.13;43.89;100304.41;10431343;28;20086;-61
2024/03/20 17:13:33;;;;;;;4.82;2.67;;;;;;;20.03;44.29;100298.44;10433317;28;20393;-63
2024/03/20 17:18:33;;;;;;;4.22;2.60;;;;;;;19.92;44.59;100299.72;10418925;28;20600;-61
2024/03/20 17:23:34;;;;;;;2.45;2.25;;;;;;;19.73;44.47;100297.50;10433085;28;20138;-62
2024/03/20 17:28:36;;;;;;;5.85;2.25;;;;;;;19.70;45.07;100309.50;10429417;28;20049;-62
2024/03/20 17:33:38;;;;;;;4.65;2.30;;;;;;;19.57;45.16;100311.97;10423399;28;20112;-60
2024/03/20 17:38:39;;;;;;;4.03;2.47;;;;;;;19.44;45.30;100323.38;10430305;28;20964;-63
2024/03/20 17:43:39;;;;;;;6.22;2.80;;;;;;;19.34;45.69;100323.63;10371620;28;20049;-61
2024/03/20 17:48:40;;;;;;;4.47;3.33;;;;;;;19.25;45.85;100322.81;10414558;28;20036;-63
2024/03/20 17:53:40;;;;;;;6.38;3.67;;;;;;;19.17;46.24;100327.44;10415859;28;20115;-63
2024/03/20 17:58:41;;;;;;;4.90;4.32;;;;;;;19.07;46.42;100328.50;10427260;28;20059;-60
2024/03/20 18:03:41;;;;;;;8.02;4.32;;;;;;;18.77;46.83;100294.25;10397108;28;20053;-63
2024/03/20 18:08:42;;;;;;;7.72;4.43;;;;;;;18.86;47.04;100320.19;10405430;28;20144;-63
2024/03/20 18:13:44;;;;;;;5.60;3.92;;;;;;;18.80;47.28;100327.09;10409424;28;20135;-63
2024/03/20 18:18:45;;;;;;;5.03;4.20;;;;;;;18.68;47.43;100318.53;10429945;28;20053;-61
2024/03/20 18:23:46;;;;;;;4.10;3.67;;;;;;;18.64;47.44;100329.84;10436831;28;20342;-62
2024/03/20 18:28:49;;;;;;;3.88;3.28;;;;;;;18.50;47.81;100329.56;10386141;28;20168;-62
2024/03/20 18:33:50;;;;;;;4.13;3.70;;;;;;;18.43;48.10;100327.75;10412653;28;20137;-62
2024/03/20 18:38:50;;;;;;;5.40;3.97;;;;;;;18.32;48.20;100335.19;10411227;28;20082;-62
2024/03/20 18:43:51;;;;;;;6.20;3.45;;;;;;;18.23;49.15;100335.38;10387596;28;20143;-61
2024/03/20 18:48:51;;;;;;;6.63;4.63;;;;;;;18.17;49.00;100337.72;10411759;28;20142;-63
2024/03/20 18:53:52;;;;;;;7.00;4.72;;;;;;;18.07;49.76;100331.69;10389467;28;20370;-60
2024/03/20 18:58:52;;;;;;;5.53;4.00;;;;;;;18.01;49.85;100337.75;10428343;28;20374;-62
2024/03/20 19:03:52;;;;;;;7.30;4.63;;;;;;;17.94;49.95;100331.34;10401319;28;20077;-62
2024/03/20 19:08:53;;;;;;;6.53;4.53;;;;;;;17.87;50.32;100339.25;10431557;28;20345;-62
2024/03/20 19:13:54;;;;;;;5.43;4.93;;;;;;;17.81;50.35;100337.25;10414021;28;20518;-63
2024/03/20 19:18:54;;;;;;;5.03;4.30;;;;;;;17.73;50.42;100345.31;10424182;28;20202;-63
2024/03/20 19:23:55;;;;;;;6.28;5.40;;;;;;;17.65;51.25;100352.38;10414798;28;20286;-60
2024/03/20 19:28:55;;;;;;;9.55;6.80;;;;;;;17.56;51.26;100350.69;10425709;28;20044;-63
2024/03/20 19:33:56;;;;;;;8.15;6.90;;;;;;;17.49;51.37;100355.06;10406687;28;20712;-61
2024/03/20 19:38:56;;;;;;;8.18;6.15;;;;;;;17.42;51.71;100351.34;10418479;28;20136;-62
2024/03/20 19:43:57;;;;;;;7.80;7.05;;;;;;;17.34;52.13;100348.63;10410751;28;20114;-63
2024/03/20 19:48:59;;;;;;;7.63;6.63;;;;;;;17.28;52.30;100345.59;10416791;28;20171;-62
2024/03/20 19:53:59;;;;;;;9.85;7.35;;;;;;;17.19;52.72;100341.22;10423568;28;20136;-62
2024/03/20 19:59:00;;;;;;;8.93;8.02;;;;;;;17.10;52.99;100344.91;10365171;28;20041;-62
2024/03/20 20:04:02;;;;;;;8.07;7.28;;;;;;;17.02;53.51;100342.16;10402302;28;20101;-61
2024/03/20 20:09:06;;;;;;;8.63;7.30;;;;;;;16.91;53.71;100346.84;10422312;28;20163;-61
2024/03/20 20:14:07;;;;;;;;;;;;;;;16.86;54.21;100348.28;10420962;28;20249;-62
2024/03/20 20:19:08;;;;;;;7.37;6.50;;;;;;;16.80;54.12;100349.81;10424726;28;19924;-63
2024/03/20 20:24:09;;;;;;;7.75;6.47;;;;;;;16.70;54.69;100349.91;10411325;28;20372;-63
2024/03/20 20:29:09;;;;;;;10.90;7.28;;;;;;;16.65;54.58;100363.00;10405226;28;20049;-62
2024/03/20 20:34:10;;;;;;;9.20;7.03;;;;;;;16.57;54.56;100358.44;10403307;28;20079;-62
2024/03/20 20:39:10;;;;;;;7.30;6.53;;;;;;;16.53;55.38;100359.75;10417463;28;20127;-62
2024/03/20 20:44:12;;;;;;;11.50;7.60;;;;;;;16.39;55.04;100352.28;10421613;28;20072;-65
2024/03/20 20:49:13;;;;;;;9.70;6.28;;;;;;;16.32;55.60;100359.28;10432259;28;20143;-62
2024/03/20 20:54:16;;;;;;;8.55;7.25;;;;;;;16.24;55.36;100370.81;10431968;28;20069;-61
2024/03/20 20:59:18;;;;;;;9.57;7.97;;;;;;;16.20;55.36;100370.28;10419986;28;20147;-62
2024/03/20 21:20:22;;;;;;;7.57;5.72;;;;;;;15.77;55.14;100377.31;10432592;28;20156;-64
2024/03/20 21:25:22;;;;;;;5.28;4.75;;;;;;;15.71;54.96;100380.59;10427302;28;20868;-64
2024/03/20 21:30:23;;;;;;;6.97;4.72;;;;;;;15.53;55.57;100389.47;10404560;28;20067;-62
2024/03/20 21:35:23;;;;;;;8.27;4.90;;;;;;;15.48;55.72;100391.78;10414690;28;20048;-63
2024/03/20 21:40:29;;;;;;;6.55;4.43;;;;;;;15.49;56.03;100392.63;10429224;28;20086;-63
2024/03/20 21:45:30;;;;;;;6.05;5.10;;;;;;;15.46;55.92;100366.97;10431328;28;20140;-63
2024/03/20 21:50:30;;;;;;;7.15;5.03;;;;;;;15.51;55.44;100380.75;10438528;28;20053;-63
2024/03/20 21:55:31;;;;;;;7.68;5.95;;;;;;;15.48;55.25;100383.75;10432137;28;20048;-61
2024/03/20 22:00:32;;;;;;;5.88;4.35;;;;;;;15.48;55.06;100386.44;10429404;28;20139;-62
2024/03/20 22:05:33;;;;;;;6.93;4.65;;;;;;;15.45;55.14;100381.38;10421265;28;20131;-61
2024/03/20 22:10:34;;;;;;;6.93;4.95;;;;;;;15.39;55.28;100384.66;10434156;28;20044;-61
2024/03/20 22:15:34;;;;;;;7.88;6.20;;;;;;;15.34;55.54;100386.94;10417010;28;20056;-61
2024/03/20 22:20:35;;;;;;;7.53;5.57;;;;;;;15.26;55.90;100378.81;10404668;28;20142;-62
2024/03/20 22:25:38;;;;;;;6.47;5.00;;;;;;;15.17;56.46;100377.88;10431112;28;20152;-63
2024/03/20 22:30:40;;;;;;;7.88;5.80;;;;;;;15.08;56.52;100370.75;10418318;28;20131;-61
2024/03/20 22:35:41;;;;;;;5.70;4.80;;;;;;;15.02;57.10;100361.47;10422371;28;20047;-60
2024/03/20 22:40:44;;;;;;;11.55;6.32;;;;;;;15.03;57.14;100373.88;10387049;28;20155;-62
2024/03/20 22:45:44;;;;;;;7.90;5.78;;;;;;;15.01;57.59;100379.38;10432191;28;20076;-63
2024/03/20 22:50:45;;;;;;;7.20;5.90;;;;;;;14.97;57.87;100383.34;10429672;28;20647;-60
2024/03/20 22:55:46;;;;;;;9.02;6.35;;;;;;;14.93;57.59;100381.13;10388090;28;20056;-61
2024/03/20 23:00:49;;;;;;;8.63;5.97;;;;;;;14.86;57.92;100386.22;10419981;28;20178;-60
2024/03/20 23:05:58;;;;;;;8.50;7.20;;;;;;;14.82;58.50;100385.66;10428061;28;20123;-62
2024/03/20 23:10:59;;;;;;;7.18;6.47;;;;;;;14.79;59.01;100388.66;10420224;28;20135;-61